No es requerida especial atención con respecto al clima.   -   No hay avisos meteorológicos

Informes METAR

 

LEZL - Sevilla, Spain
Distancia de la estación: ESE 25km
Actualización: 16/08/2018 13:30
Muy nuboso
Muy nuboso
 Viento de O
Viento: O 9 km/h
Temperatura: 25°C
Rocío: 17°C
Humedad: 61%
Barómetro: 1017 hPa
Nubes: Muy nuboso
Visibilidad: 10 km
Detalles de las nubes: Muy nuboso 884 m
2018/08/16 11:30 LEZL 161130Z 28005KT 230V010 9999 BKN029 25/17 Q1017 NOSIG
LEMO - Morón, Spain
Distancia de la estación: SE 65km
Actualización: 16/08/2018 14:00
Parcialmente nuboso
Parcialmente nuboso
 Viento de variable
Viento: variable 7 km/h
Temperatura: 25°C
Rocío: 17°C
Humedad: 61%
Barómetro: 1017 hPa
Nubes: Parcialmente nuboso
Visibilidad: 10 km
Detalles de las nubes: Parcialmente nuboso 823 m
Parcialmente nuboso 1097 m
2018/08/16 12:00 LEMO 161200Z VRB04KT 9999 SCT027 SCT036 25/17 Q1017 NOSIG
LEJR - Jeréz, Spain
Distancia de la estación: S 87km
Actualización: 16/08/2018 14:00
Muy nuboso
Muy nuboso
 Viento de SSO
Viento: SSO 6 km/h
Temperatura: 26°C
Rocío: 16°C
Humedad: 54%
Barómetro: 1017 hPa
Nubes: Muy nuboso
Visibilidad: 10 km
Detalles de las nubes: Muy nuboso 1036 m
2018/08/16 12:00 LEJR 161200Z 20003KT 9999 BKN034 26/16 Q1017
 
LERT - Rota, Spain
Distancia de la estación: S 101km
Actualización: 16/08/2018 13:00
Muy nuboso
Muy nuboso
 Viento de variable
Viento: variable 9 km/h
Temperatura: 23°C
Rocío: 16°C
Humedad: 65%
Barómetro: 1018 hPa
Nubes: Muy nuboso
Visibilidad: 10 km
Detalles de las nubes: Poco nuboso 853 m
Muy nuboso 1067 m
2018/08/16 11:00 LERT 161100Z VRB05KT 9999 FEW028 BKN035 23/16 Q1018 NOSIG
LEMG - Málaga, Spain
Distancia de la estación: ESE 178km
Actualización: 16/08/2018 13:30
Poco nuboso
Poco nuboso
 Viento de SSE
Viento: SSE 15 km/h
Temperatura: 28°C
Índice de calor: 29°C
Rocío: 19°C
Humedad: 58%
Barómetro: 1016 hPa
Nubes: Poco nuboso
Visibilidad: 10 km
Detalles de las nubes: Poco nuboso 1219 m
2018/08/16 11:30 LEMG 161130Z 15008KT 110V200 9999 FEW040 28/19 Q1016 NOSIG
LEBA - Córdoba, Spain
Distancia de la estación: ENE 123km
Actualización: 16/08/2018 13:30
Despejado
Despejado
 Viento de OSO
Viento: OSO 13 km/h
Temperatura: 28°C
Índice de calor: 29°C
Rocío: 18°C
Humedad: 55%
Barómetro: 1016 hPa
Resumen: Despejado
Visibilidad: mayor de 10 km
2018/08/16 11:30 LEBA 161130Z 24007KT 190V290 CAVOK 28/18 Q1016
 
LEGR - Granada, Spain
Distancia de la estación: E 215km
Actualización: 16/08/2018 13:30
Poco nuboso
Poco nuboso
 Viento de variable
Viento: variable 6 km/h
Temperatura: 30°C
Índice de calor: 30°C
Rocío: 16°C
Humedad: 43%
Barómetro: 1017 hPa
Nubes: Poco nuboso
Visibilidad: 10 km
Detalles de las nubes: Poco nuboso 1524 m
Poco nuboso 2134 m
2018/08/16 11:30 LEGR 161130Z VRB03KT 9999 FEW050 FEW070TCU 30/16 Q1017
LEAM - Almería, Spain
Distancia de la estación: E 344km
Actualización: 16/08/2018 13:30
Poco nuboso
Poco nuboso
 Viento de SSO
Viento: SSO 17 km/h
Temperatura: 28°C
Índice de calor: 31°C
Rocío: 23°C
Humedad: 74%
Barómetro: 1015 hPa
Nubes: Poco nuboso
Visibilidad: 10 km
Detalles de las nubes: Poco nuboso 1219 m
2018/08/16 11:30 LEAM 161130Z 21009KT 9999 FEW040 28/23 Q1015
GCLP - Las Palmas/Aeropuerto, Spain
Distancia de la estación: SO 1410km
Actualización: 16/08/2018 13:30
Muy nuboso
Muy nuboso
 Viento de NNE
Viento: NNE 54 km/h
Temperatura: 25°C
Rocío: 18°C
Humedad: 65%
Barómetro: 1020 hPa
Nubes: Muy nuboso
Visibilidad: 10 km
Detalles de las nubes: Muy nuboso 762 m
2018/08/16 11:30 GCLP 161130Z 02029KT 9999 BKN025 25/18 Q1020 NOSIG
 
LEMD - Madrid/Barajas, Spain
Distancia de la estación: NNE 402km
Actualización: 16/08/2018 13:30
Poco nuboso
Poco nuboso
 Viento de ESE
Viento: ESE 15 km/h
Temperatura: 29°C
Rocío: 12°C
Humedad: 35%
Barómetro: 1018 hPa
Nubes: Poco nuboso
Visibilidad: 10 km
Detalles de las nubes: Poco nuboso 2134 m
2018/08/16 11:30 LEMD 161130Z 12008KT 070V160 9999 FEW070 29/12 Q1018 NOSIG
LEVD - Valladolid, Spain
Distancia de la estación: N 492km
Actualización: 16/08/2018 13:30
Poco nuboso
Poco nuboso
 Viento de ESE
Viento: ESE 4 km/h
Temperatura: 28°C
Rocío: 9°C
Humedad: 30%
Barómetro: 1018 hPa
Nubes: Poco nuboso
Visibilidad: 10 km
Detalles de las nubes: Poco nuboso 1219 m
2018/08/16 11:30 LEVD 161130Z 11002KT 9999 FEW040TCU 28/09 Q1018
LEBL - Barcelona, Spain
Distancia de la estación: NE 816km
Actualización: 16/08/2018 13:30
Poco nuboso
Poco nuboso
 Viento de S
Viento: S 22 km/h
Temperatura: 28°C
Índice de calor: 30°C
Rocío: 22°C
Humedad: 70%
Barómetro: 1015 hPa
Nubes: Poco nuboso
Visibilidad: 10 km
Detalles de las nubes: Poco nuboso 1219 m
2018/08/16 11:30 LEBL 161130Z 19012KT 9999 FEW040 28/22 Q1015 NOSIG